createdAt,value
2018-10-04T00:00:38.660Z,6.80
2018-10-04T00:03:07.585Z,6.90
2018-10-04T00:05:36.507Z,6.80
2018-10-04T00:08:05.491Z,6.80
2018-10-04T00:10:34.434Z,6.90
2018-10-04T00:13:03.377Z,6.90
2018-10-04T00:15:32.295Z,6.90
2018-10-04T00:18:01.197Z,6.90
2018-10-04T00:20:30.102Z,7.00
2018-10-04T00:22:59.072Z,7.00
2018-10-04T00:25:42.626Z,7.00
2018-10-04T00:28:11.574Z,7.00
2018-10-04T00:30:40.475Z,7.00
2018-10-04T00:33:09.392Z,7.00
2018-10-04T00:35:38.360Z,7.00
2018-10-04T00:38:07.352Z,7.00
2018-10-04T00:40:36.368Z,7.00
2018-10-04T00:43:05.375Z,6.90
2018-10-04T00:45:34.322Z,6.90
2018-10-04T00:48:03.302Z,6.90
2018-10-04T00:50:32.320Z,6.90
2018-10-04T00:53:01.246Z,7.00
2018-10-04T00:55:30.684Z,7.00
2018-10-04T00:57:59.748Z,6.90
2018-10-04T01:00:28.773Z,7.00
2018-10-04T01:02:57.752Z,7.00
2018-10-04T01:05:26.824Z,7.00
2018-10-04T01:07:56.016Z,7.00
2018-10-04T01:10:25.062Z,7.00
2018-10-04T01:12:54.259Z,7.10
2018-10-04T01:15:23.328Z,7.10
2018-10-04T01:18:03.754Z,7.00
2018-10-04T01:20:33.033Z,7.00
2018-10-04T01:23:01.960Z,7.00
2018-10-04T01:25:30.990Z,7.10
2018-10-04T01:27:59.907Z,7.10
2018-10-04T01:30:28.878Z,7.20
2018-10-04T01:32:57.944Z,7.40
2018-10-04T01:35:26.930Z,7.50
2018-10-04T01:37:56.189Z,7.60
2018-10-04T01:40:25.252Z,7.70
2018-10-04T01:42:54.333Z,7.60
2018-10-04T01:45:23.336Z,7.70
2018-10-04T01:47:52.294Z,7.70
2018-10-04T01:50:21.256Z,7.70
2018-10-04T01:52:50.323Z,7.80
2018-10-04T01:55:19.616Z,7.60
2018-10-04T01:57:48.536Z,7.60
2018-10-04T02:00:17.824Z,7.60
2018-10-04T02:02:47.095Z,7.50
2018-10-04T02:05:16.035Z,7.50
2018-10-04T02:07:45.007Z,7.50
2018-10-04T02:10:14.016Z,7.60
2018-10-04T02:12:42.927Z,7.70
2018-10-04T02:15:11.905Z,7.80
2018-10-04T02:17:40.903Z,7.80
2018-10-04T02:20:10.039Z,7.90
2018-10-04T02:22:39.030Z,7.80
2018-10-04T02:25:08.140Z,7.80
2018-10-04T02:27:37.185Z,7.70
2018-10-04T02:30:06.503Z,7.50
2018-10-04T02:32:35.536Z,7.40
2018-10-04T02:35:04.896Z,7.20
2018-10-04T02:37:33.880Z,7.20
2018-10-04T02:40:02.977Z,7.20
2018-10-04T02:42:32.010Z,7.20
2018-10-04T02:45:00.988Z,7.10
2018-10-04T02:47:30.080Z,7.10
2018-10-04T02:49:59.126Z,7.00
2018-10-04T02:52:28.301Z,6.90
2018-10-04T02:55:02.448Z,6.90
2018-10-04T02:57:31.449Z,6.90
2018-10-04T03:00:00.433Z,6.90
2018-10-04T03:02:29.431Z,6.90
2018-10-04T03:04:58.462Z,6.90
2018-10-04T03:07:27.516Z,6.90
2018-10-04T03:09:57.587Z,6.80
2018-10-04T03:12:26.918Z,6.70
2018-10-04T03:14:56.484Z,6.70
2018-10-04T03:17:25.564Z,6.70
2018-10-04T03:19:54.556Z,6.60
2018-10-04T03:22:23.474Z,6.60
2018-10-04T03:24:52.538Z,6.60
2018-10-04T03:27:21.523Z,6.70
2018-10-04T03:29:50.537Z,6.70
2018-10-04T03:32:19.515Z,6.70
2018-10-04T03:34:48.559Z,6.70
2018-10-04T03:37:17.552Z,6.70
2018-10-04T03:39:46.528Z,6.70
2018-10-04T03:42:15.572Z,6.60
2018-10-04T03:44:44.627Z,6.70
2018-10-04T03:47:13.748Z,6.60
2018-10-04T03:49:42.714Z,6.60
2018-10-04T03:52:11.625Z,6.60
2018-10-04T03:54:40.888Z,6.60
2018-10-04T03:57:09.828Z,6.60
2018-10-04T03:59:38.856Z,6.70
2018-10-04T04:02:07.923Z,6.70
2018-10-04T04:04:36.980Z,6.60
2018-10-04T04:07:06.268Z,6.60
2018-10-04T04:09:35.354Z,6.60
2018-10-04T04:12:04.520Z,6.60
2018-10-04T04:14:33.469Z,6.60
2018-10-04T04:17:02.555Z,6.50
2018-10-04T04:19:31.586Z,6.50
2018-10-04T04:22:00.598Z,6.60
2018-10-04T04:24:29.600Z,6.70
2018-10-04T04:26:58.510Z,6.80
2018-10-04T04:29:27.628Z,6.80
2018-10-04T04:31:56.652Z,6.80
2018-10-04T04:34:25.713Z,6.80
2018-10-04T04:36:54.656Z,6.80
2018-10-04T04:39:23.666Z,6.80
2018-10-04T04:41:52.606Z,6.70
2018-10-04T04:44:21.606Z,6.70
2018-10-04T04:46:50.685Z,6.70
2018-10-04T04:49:19.544Z,6.70
2018-10-04T04:51:48.505Z,6.80
2018-10-04T04:56:25.537Z,6.90
2018-10-04T04:58:54.429Z,6.90
2018-10-04T05:01:23.350Z,6.70
2018-10-04T05:03:53.046Z,6.70
2018-10-04T05:06:21.986Z,6.70
2018-10-04T05:08:50.883Z,6.70
2018-10-04T05:11:19.847Z,6.70
2018-10-04T05:13:48.791Z,6.70
2018-10-04T05:16:17.705Z,6.70
2018-10-04T05:18:46.700Z,6.80
2018-10-04T05:21:15.649Z,6.90
2018-10-04T05:23:44.584Z,7.10
2018-10-04T05:26:13.644Z,7.30
2018-10-04T05:28:42.638Z,7.50
2018-10-04T05:31:11.508Z,7.70
2018-10-04T05:33:40.526Z,8.00
2018-10-04T05:36:09.482Z,8.20
2018-10-04T05:38:38.428Z,8.30
2018-10-04T05:41:07.503Z,8.50
2018-10-04T05:43:36.396Z,8.50
2018-10-04T05:46:05.313Z,8.60
2018-10-04T05:48:34.296Z,8.70
2018-10-04T05:51:03.247Z,8.70
2018-10-04T05:53:32.257Z,8.70
2018-10-04T05:56:01.233Z,8.70
2018-10-04T05:58:30.673Z,8.70
2018-10-04T06:01:00.476Z,8.80
2018-10-04T06:03:29.588Z,9.10
2018-10-04T06:05:58.578Z,9.50
2018-10-04T06:08:27.672Z,10.70
2018-10-04T06:10:56.887Z,12.10
2018-10-04T06:13:26.063Z,13.00
2018-10-04T06:15:55.321Z,14.00
2018-10-04T06:18:24.317Z,14.70
2018-10-04T06:20:53.350Z,14.80
2018-10-04T06:23:22.332Z,14.60
2018-10-04T06:25:51.533Z,13.90
2018-10-04T06:28:20.548Z,13.20
2018-10-04T06:30:49.717Z,12.90
2018-10-04T06:33:18.668Z,13.30
2018-10-04T06:35:47.611Z,13.60
2018-10-04T06:38:16.558Z,13.90
2018-10-04T06:40:45.681Z,14.60
2018-10-04T06:43:14.946Z,15.60
2018-10-04T06:45:44.438Z,16.00
2018-10-04T06:48:13.402Z,17.00
2018-10-04T06:50:42.306Z,18.00
2018-10-04T06:53:11.222Z,18.20
2018-10-04T06:55:40.176Z,18.10
2018-10-04T06:58:09.108Z,18.30
2018-10-04T07:00:38.133Z,19.60
2018-10-04T07:03:07.275Z,21.30
2018-10-04T07:05:37.290Z,20.00
2018-10-04T07:08:06.392Z,19.40
2018-10-04T07:10:35.608Z,19.60
2018-10-04T07:13:04.719Z,19.50
2018-10-04T07:15:33.805Z,18.80
2018-10-04T07:18:02.997Z,19.30
2018-10-04T07:20:31.943Z,20.50
2018-10-04T07:23:00.888Z,19.90
2018-10-04T07:25:29.839Z,19.90
2018-10-04T07:27:58.723Z,20.20
2018-10-04T07:30:27.664Z,20.10
2018-10-04T07:32:56.608Z,20.00
2018-10-04T07:35:25.536Z,19.90
2018-10-04T07:37:54.641Z,21.10
2018-10-04T07:40:23.577Z,22.50
2018-10-04T07:42:52.459Z,24.40
2018-10-04T07:45:21.348Z,23.80
2018-10-04T07:47:50.332Z,22.30
2018-10-04T07:50:19.299Z,22.40
2018-10-04T07:52:48.192Z,22.80
2018-10-04T07:55:17.385Z,23.10
2018-10-04T07:57:46.261Z,21.80
2018-10-04T08:00:15.254Z,20.80
2018-10-04T08:02:44.212Z,21.10
2018-10-04T08:05:13.087Z,19.90
2018-10-04T08:07:42.050Z,19.00
2018-10-04T08:10:11.007Z,18.10
2018-10-04T08:12:39.907Z,17.50
2018-10-04T08:15:08.872Z,17.00
2018-10-04T08:17:37.866Z,16.40
2018-10-04T08:20:07.518Z,17.90
2018-10-04T08:22:36.691Z,18.90
2018-10-04T08:25:05.836Z,18.80
2018-10-04T08:27:35.012Z,17.60
2018-10-04T08:30:04.442Z,17.10
2018-10-04T08:32:33.643Z,16.70
2018-10-04T08:35:02.563Z,16.70
2018-10-04T08:37:31.499Z,17.80
2018-10-04T08:40:00.635Z,17.60
2018-10-04T08:42:29.797Z,18.60
2018-10-04T08:44:58.735Z,19.60
2018-10-04T08:47:27.799Z,19.20
2018-10-04T08:49:56.753Z,18.90
2018-10-04T08:52:30.925Z,19.10
2018-10-04T08:55:05.270Z,18.00
2018-10-04T08:57:34.552Z,18.40
2018-10-04T09:00:03.776Z,18.20
2018-10-04T09:02:33.172Z,18.30
2018-10-04T09:05:02.160Z,18.90
2018-10-04T09:07:31.206Z,19.30
2018-10-04T09:10:01.745Z,18.80
2018-10-04T09:12:31.520Z,17.80
2018-10-04T09:15:00.408Z,16.70
2018-10-04T09:17:29.266Z,16.00
2018-10-04T09:19:58.484Z,15.50
2018-10-04T09:22:27.451Z,15.60
2018-10-04T09:24:56.625Z,16.10
2018-10-04T09:27:25.799Z,16.20
2018-10-04T09:29:59.988Z,16.30
2018-10-04T09:32:29.082Z,16.60
2018-10-04T09:34:57.977Z,16.80
2018-10-04T09:37:27.329Z,16.50
2018-10-04T09:39:56.528Z,16.20
2018-10-04T09:42:25.728Z,16.00
2018-10-04T09:44:54.615Z,16.30
2018-10-04T09:47:29.702Z,16.60
2018-10-04T09:49:59.392Z,16.70
2018-10-04T09:52:28.308Z,16.70
2018-10-04T09:55:02.399Z,16.40
2018-10-04T09:57:32.553Z,16.30
2018-10-04T10:00:05.895Z,16.30
2018-10-04T10:02:37.913Z,16.60
2018-10-04T10:05:07.483Z,17.00
2018-10-04T10:07:37.332Z,17.10
2018-10-04T10:10:06.632Z,17.00
2018-10-04T10:12:35.563Z,16.80
2018-10-04T10:15:04.957Z,16.80
2018-10-04T10:17:34.676Z,16.60
2018-10-04T10:20:03.916Z,16.50
2018-10-04T10:22:32.855Z,16.60
2018-10-04T10:25:01.887Z,16.80
2018-10-04T10:27:30.875Z,17.00
2018-10-04T10:29:59.804Z,16.90
2018-10-04T10:32:28.783Z,16.70
2018-10-04T10:34:58.055Z,16.60
2018-10-04T10:37:27.477Z,16.50
2018-10-04T10:39:56.650Z,16.50
2018-10-04T10:42:26.103Z,16.40
2018-10-04T10:44:55.406Z,16.70
2018-10-04T10:47:24.367Z,16.90
2018-10-04T10:49:54.521Z,17.20
2018-10-04T10:52:23.887Z,17.60
2018-10-04T10:54:53.124Z,17.80
2018-10-04T10:57:22.289Z,17.80
2018-10-04T10:59:51.504Z,17.80
2018-10-04T11:02:20.495Z,18.00
2018-10-04T11:04:49.489Z,17.60
2018-10-04T11:07:18.353Z,17.40
2018-10-04T11:09:47.347Z,17.40
2018-10-04T11:12:16.412Z,17.50
2018-10-04T11:14:45.630Z,17.80
2018-10-04T11:17:14.573Z,18.00
2018-10-04T11:19:43.903Z,17.60
2018-10-04T11:22:13.100Z,17.10
2018-10-04T11:24:42.231Z,16.90
2018-10-04T11:27:11.145Z,16.90
2018-10-04T11:29:40.107Z,16.90
2018-10-04T11:32:09.274Z,16.70
2018-10-04T11:34:38.563Z,16.60
2018-10-04T11:37:07.581Z,16.60
2018-10-04T11:39:36.580Z,16.80
2018-10-04T11:42:06.023Z,17.00
2018-10-04T11:44:38.391Z,17.40
2018-10-04T11:47:13.443Z,17.60
2018-10-04T11:49:42.459Z,17.80
2018-10-04T11:52:11.499Z,18.00
2018-10-04T11:54:40.754Z,17.90
2018-10-04T11:57:09.739Z,17.80
2018-10-04T11:59:38.697Z,17.60
2018-10-04T12:02:07.698Z,17.10
2018-10-04T12:04:36.637Z,16.60
2018-10-04T12:07:05.617Z,16.40
2018-10-04T12:09:34.615Z,16.20
2018-10-04T12:12:03.631Z,16.20
2018-10-04T12:14:32.689Z,16.20
2018-10-04T12:17:01.815Z,16.20
2018-10-04T12:19:31.106Z,16.40
2018-10-04T12:22:00.596Z,16.40
2018-10-04T12:24:29.742Z,16.60
2018-10-04T12:26:59.207Z,16.60
2018-10-04T12:29:28.368Z,16.50
2018-10-04T12:31:57.290Z,16.70
2018-10-04T12:34:26.284Z,16.90
2018-10-04T12:36:55.196Z,17.20
2018-10-04T12:39:24.258Z,17.20
2018-10-04T12:41:53.393Z,17.20
2018-10-04T12:44:22.445Z,16.90
2018-10-04T12:46:51.540Z,16.60
2018-10-04T12:49:20.620Z,16.40
2018-10-04T12:51:50.129Z,16.30
2018-10-04T12:54:19.326Z,16.20
2018-10-04T12:56:48.460Z,16.20
2018-10-04T12:59:17.523Z,16.40
2018-10-04T13:01:46.577Z,16.40
2018-10-04T13:04:15.542Z,16.60
2018-10-04T13:09:37.936Z,16.80
2018-10-04T13:12:07.229Z,16.80
2018-10-04T13:14:36.616Z,16.80
2018-10-04T13:17:06.025Z,16.60
2018-10-04T13:19:36.121Z,16.60
2018-10-04T13:22:05.355Z,16.50
2018-10-04T13:24:35.763Z,16.50
2018-10-04T13:27:04.788Z,16.40
2018-10-04T13:29:33.947Z,16.40
2018-10-04T13:32:03.062Z,16.30
2018-10-04T13:34:32.145Z,16.20
2018-10-04T13:37:02.616Z,16.30
2018-10-04T13:39:31.710Z,16.50
2018-10-04T13:42:01.088Z,16.70
2018-10-04T13:44:30.329Z,16.80
2018-10-04T13:46:59.588Z,16.80
2018-10-04T13:49:28.742Z,16.60
2018-10-04T13:51:57.920Z,16.50
2018-10-04T13:54:27.280Z,16.40
2018-10-04T13:56:56.224Z,16.30
2018-10-04T13:59:25.212Z,16.20
2018-10-04T14:01:54.414Z,16.00
2018-10-04T14:04:23.506Z,16.10
2018-10-04T14:06:52.653Z,16.20
2018-10-04T14:09:21.579Z,16.50
2018-10-04T14:11:51.278Z,16.70
2018-10-04T14:14:20.164Z,16.80
2018-10-04T14:16:49.238Z,16.60
2018-10-04T14:19:18.254Z,16.40
2018-10-04T14:21:47.244Z,16.10
2018-10-04T14:24:16.465Z,15.80
2018-10-04T14:26:45.628Z,15.60
2018-10-04T14:29:15.032Z,15.60
2018-10-04T14:31:44.501Z,15.50
2018-10-04T14:34:13.362Z,15.50
2018-10-04T14:36:42.338Z,15.40
2018-10-04T14:39:11.316Z,15.30
2018-10-04T14:41:40.923Z,15.20
2018-10-04T14:44:10.225Z,15.20
2018-10-04T14:46:39.538Z,15.00
2018-10-04T14:49:08.617Z,15.00
2018-10-04T14:51:38.870Z,15.00
2018-10-04T14:54:07.930Z,15.00
2018-10-04T14:56:37.180Z,14.90
2018-10-04T14:59:06.181Z,14.80
2018-10-04T15:01:35.309Z,14.80
2018-10-04T15:04:04.183Z,14.80
2018-10-04T15:06:33.199Z,14.80
2018-10-04T15:09:02.212Z,14.80
2018-10-04T15:11:31.275Z,14.70
2018-10-04T15:14:04.710Z,14.60
2018-10-04T15:16:34.230Z,14.50
2018-10-04T15:19:05.314Z,14.40
2018-10-04T15:21:34.418Z,14.50
2018-10-04T15:24:05.462Z,14.60
2018-10-04T15:26:34.965Z,14.80
2018-10-04T15:29:04.006Z,14.90
2018-10-04T15:31:34.511Z,14.80
2018-10-04T15:34:03.557Z,14.90
2018-10-04T15:36:32.523Z,14.90
2018-10-04T15:39:01.602Z,14.90
2018-10-04T15:41:30.631Z,15.00
2018-10-04T15:43:59.801Z,15.00
2018-10-04T15:46:31.284Z,15.00
2018-10-04T15:49:04.177Z,15.00
2018-10-04T15:51:33.599Z,15.00
2018-10-04T15:54:03.690Z,15.00
2018-10-04T15:56:33.618Z,15.00
2018-10-04T15:59:02.892Z,15.00
2018-10-04T16:01:32.100Z,14.90
2018-10-04T16:04:01.381Z,14.90
2018-10-04T16:06:30.770Z,15.00
2018-10-04T16:08:59.909Z,14.90
2018-10-04T16:11:29.369Z,14.70
2018-10-04T16:13:58.653Z,14.70
2018-10-04T16:16:28.683Z,14.70
2018-10-04T16:18:58.019Z,14.70
2018-10-04T16:21:27.380Z,14.60
2018-10-04T16:23:56.385Z,14.50
2018-10-04T16:26:25.528Z,14.60
2018-10-04T16:28:54.589Z,14.60
2018-10-04T16:31:23.612Z,14.60
2018-10-04T16:33:52.719Z,14.50
2018-10-04T16:36:21.816Z,14.40
2018-10-04T16:38:51.117Z,14.20
2018-10-04T16:41:20.224Z,14.20
2018-10-04T16:43:49.286Z,14.20
2018-10-04T16:46:18.288Z,14.00
2018-10-04T16:48:47.470Z,14.00
2018-10-04T16:51:16.486Z,13.90
2018-10-04T16:53:46.264Z,13.80
2018-10-04T16:56:15.692Z,13.60
2018-10-04T16:58:51.062Z,13.40
2018-10-04T17:01:21.761Z,13.30
2018-10-04T17:03:51.271Z,13.10
2018-10-04T17:06:20.618Z,12.90
2018-10-04T17:08:49.791Z,12.80
2018-10-04T17:11:18.962Z,12.60
2018-10-04T17:13:48.575Z,12.50
2018-10-04T17:16:17.960Z,12.50
2018-10-04T17:18:47.254Z,12.40
2018-10-04T17:21:16.671Z,12.30
2018-10-04T17:23:46.220Z,12.20
2018-10-04T17:26:16.323Z,12.00
2018-10-04T17:28:45.740Z,11.90
2018-10-04T17:31:14.950Z,11.80
2018-10-04T17:33:45.302Z,11.70
2018-10-04T17:36:32.429Z,11.70
2018-10-04T17:39:16.971Z,11.50
2018-10-04T17:42:06.327Z,11.40
2018-10-04T17:44:48.765Z,11.40
2018-10-04T17:47:38.216Z,11.30
2018-10-04T17:50:07.936Z,11.20
2018-10-04T17:52:58.194Z,11.30
2018-10-04T17:55:37.900Z,11.20
2018-10-04T17:58:22.670Z,11.20
2018-10-04T18:01:01.857Z,11.20
2018-10-04T18:03:44.841Z,11.10
2018-10-04T18:06:36.094Z,11.00
2018-10-04T18:09:13.315Z,11.00
2018-10-04T18:11:58.756Z,10.90
2018-10-04T18:14:33.658Z,10.80
2018-10-04T18:17:13.178Z,10.70
2018-10-04T18:19:55.940Z,10.70
2018-10-04T18:22:31.449Z,10.60
2018-10-04T18:25:14.271Z,10.60
2018-10-04T18:27:43.791Z,10.60
2018-10-04T18:30:13.136Z,10.60
2018-10-04T18:32:42.349Z,10.70
2018-10-04T18:35:11.587Z,10.80
2018-10-04T18:37:44.912Z,10.80
2018-10-04T18:40:14.166Z,10.80
2018-10-04T18:42:44.655Z,10.70
2018-10-04T18:45:14.084Z,10.70
2018-10-04T18:47:43.414Z,10.70
2018-10-04T18:50:12.675Z,10.70
2018-10-04T18:52:42.185Z,10.70
2018-10-04T18:55:11.599Z,10.70
2018-10-04T18:57:40.935Z,10.70
2018-10-04T19:00:11.008Z,10.70
2018-10-04T19:02:40.417Z,10.60
2018-10-04T19:05:09.565Z,10.60
2018-10-04T19:07:39.011Z,10.50
2018-10-04T19:10:08.124Z,10.50
2018-10-04T19:12:37.246Z,10.40
2018-10-04T19:15:06.661Z,10.30
2018-10-04T19:17:36.814Z,10.30
2018-10-04T19:20:06.311Z,10.20
2018-10-04T19:22:35.754Z,10.20
2018-10-04T19:25:10.335Z,10.20
2018-10-04T19:27:39.653Z,10.20
2018-10-04T19:30:09.345Z,10.20
2018-10-04T19:32:39.478Z,10.10
2018-10-04T19:35:08.879Z,10.10
2018-10-04T19:37:38.252Z,10.20
2018-10-04T19:40:07.907Z,10.20
2018-10-04T19:42:39.747Z,10.20
2018-10-04T19:45:09.727Z,10.30
2018-10-04T19:47:39.310Z,10.30
2018-10-04T19:50:09.411Z,10.20
2018-10-04T19:52:40.105Z,10.20
2018-10-04T19:55:09.515Z,10.20
2018-10-04T19:57:40.901Z,10.20
2018-10-04T20:00:10.703Z,10.20
2018-10-04T20:02:39.970Z,10.20
2018-10-04T20:05:18.730Z,10.20
2018-10-04T20:07:48.736Z,10.10
2018-10-04T20:10:18.951Z,10.00
2018-10-04T20:12:50.238Z,10.00
2018-10-04T20:15:20.737Z,9.90
2018-10-04T20:17:49.957Z,9.80
2018-10-04T20:20:19.206Z,9.80
2018-10-04T20:22:48.500Z,9.70
2018-10-04T20:25:20.600Z,9.60
2018-10-04T20:27:49.660Z,9.60
2018-10-04T20:30:20.220Z,9.50
2018-10-04T20:32:49.310Z,9.50
2018-10-04T20:35:18.636Z,9.40
2018-10-04T20:37:47.992Z,9.40
2018-10-04T20:40:17.811Z,9.40
2018-10-04T20:42:47.010Z,9.30
2018-10-04T20:45:16.339Z,9.40
2018-10-04T20:47:46.405Z,9.40
2018-10-04T20:50:16.026Z,9.30
2018-10-04T20:52:45.018Z,9.30
2018-10-04T20:55:14.068Z,9.40
2018-10-04T20:57:43.043Z,9.40
2018-10-04T21:00:12.073Z,9.50
2018-10-04T21:02:41.075Z,9.40
2018-10-04T21:05:10.092Z,9.40
2018-10-04T21:07:39.278Z,9.40
2018-10-04T21:10:08.332Z,9.30
2018-10-04T21:12:37.279Z,9.30
2018-10-04T21:15:06.987Z,9.20
2018-10-04T21:17:36.404Z,9.20
2018-10-04T21:20:05.782Z,9.20
2018-10-04T21:22:34.837Z,9.20
2018-10-04T21:25:04.240Z,9.20
2018-10-04T21:27:33.320Z,9.20
2018-10-04T21:30:02.373Z,9.10
2018-10-04T21:32:32.172Z,9.10
2018-10-04T21:35:01.857Z,9.20
2018-10-04T21:37:30.842Z,9.20
2018-10-04T21:39:59.913Z,9.10
2018-10-04T21:42:28.938Z,9.00
2018-10-04T21:44:57.959Z,9.00
2018-10-04T21:47:27.723Z,8.90
2018-10-04T21:49:56.735Z,8.90
2018-10-04T21:52:25.795Z,8.90
2018-10-04T21:54:55.900Z,8.90
2018-10-04T21:57:25.105Z,8.80
2018-10-04T21:59:54.259Z,8.80
2018-10-04T22:02:23.556Z,8.70
2018-10-04T22:04:52.879Z,8.70
2018-10-04T22:07:23.236Z,8.70
2018-10-04T22:09:52.360Z,8.70
2018-10-04T22:12:21.559Z,8.70
2018-10-04T22:14:51.811Z,8.60
2018-10-04T22:17:21.090Z,8.50
2018-10-04T22:19:50.375Z,8.50
2018-10-04T22:22:19.423Z,8.50
2018-10-04T22:24:48.660Z,8.50
2018-10-04T22:27:17.959Z,8.50
2018-10-04T22:29:47.791Z,8.50
2018-10-04T22:32:17.167Z,8.40
2018-10-04T22:34:46.427Z,8.30
2018-10-04T22:37:15.864Z,8.30
2018-10-04T22:39:45.392Z,8.30
2018-10-04T22:42:14.675Z,8.30
2018-10-04T22:44:44.216Z,8.40
2018-10-04T22:47:13.466Z,8.40
2018-10-04T22:49:42.769Z,8.20
2018-10-04T22:52:11.981Z,8.10
2018-10-04T22:54:41.081Z,8.10
2018-10-04T22:57:10.114Z,8.10
2018-10-04T22:59:39.177Z,8.00
2018-10-04T23:02:08.259Z,8.00
2018-10-04T23:04:37.286Z,8.00
2018-10-04T23:07:06.894Z,7.80
2018-10-04T23:09:36.150Z,7.80
2018-10-04T23:12:05.318Z,7.80
2018-10-04T23:14:34.618Z,7.80
2018-10-04T23:17:05.469Z,7.80
2018-10-04T23:19:34.654Z,7.80
2018-10-04T23:22:04.047Z,7.80
2018-10-04T23:24:33.343Z,7.80
2018-10-04T23:27:03.462Z,7.80
2018-10-04T23:29:33.268Z,7.80
2018-10-04T23:32:02.380Z,7.70
2018-10-04T23:34:31.693Z,7.70
2018-10-04T23:37:00.754Z,7.70
2018-10-04T23:39:30.152Z,7.70
2018-10-04T23:41:59.303Z,7.80
2018-10-04T23:44:28.397Z,7.80
2018-10-04T23:46:57.772Z,7.90
2018-10-04T23:49:27.184Z,7.80
2018-10-04T23:51:56.200Z,7.90
2018-10-04T23:54:25.199Z,8.00
2018-10-04T23:56:54.427Z,8.00
2018-10-04T23:59:23.493Z,8.00
